createdAt,value
2023-04-23T00:01:41.874Z,15.87
2023-04-23T00:04:08.740Z,16.87
2023-04-23T00:06:35.377Z,15.83
2023-04-23T00:09:03.145Z,16.60
2023-04-23T00:11:30.489Z,16.60
2023-04-23T00:13:57.110Z,15.93
2023-04-23T00:16:24.077Z,15.87
2023-04-23T00:18:50.358Z,17.17
2023-04-23T00:21:16.688Z,15.90
2023-04-23T00:23:42.829Z,17.13
2023-04-23T00:26:08.959Z,16.60
2023-04-23T00:28:35.880Z,16.57
2023-04-23T00:31:02.045Z,16.30
2023-04-23T00:33:28.142Z,17.17
2023-04-23T00:35:54.252Z,16.13
2023-04-23T00:38:20.462Z,17.07
2023-04-23T00:40:46.612Z,16.90
2023-04-23T00:43:12.875Z,16.97
2023-04-23T00:45:39.800Z,17.03
2023-04-23T00:48:06.852Z,18.07
2023-04-23T00:50:33.108Z,17.20
2023-04-23T00:52:59.682Z,16.60
2023-04-23T00:55:26.080Z,16.93
2023-04-23T00:57:53.352Z,16.63
2023-04-23T01:00:19.923Z,16.57
2023-04-23T01:02:47.739Z,16.37
2023-04-23T01:05:15.697Z,17.07
2023-04-23T01:07:43.109Z,16.87
2023-04-23T01:10:10.213Z,17.83
2023-04-23T01:12:36.432Z,16.90
2023-04-23T01:15:02.961Z,16.57
2023-04-23T01:17:29.335Z,18.30
2023-04-23T01:19:56.161Z,17.17
2023-04-23T01:22:23.155Z,19.00
2023-04-23T01:24:49.706Z,18.83
2023-04-23T01:27:16.323Z,20.07
2023-04-23T01:29:42.571Z,20.50
2023-04-23T01:32:08.821Z,22.50
2023-04-23T01:34:35.545Z,22.40
2023-04-23T01:37:03.492Z,20.90
2023-04-23T01:39:30.313Z,21.90
2023-04-23T01:41:57.544Z,21.93
2023-04-23T01:44:23.719Z,21.67
2023-04-23T01:46:49.842Z,21.63
2023-04-23T01:49:16.306Z,20.33
2023-04-23T01:51:42.726Z,20.47
2023-04-23T01:54:08.829Z,20.40
2023-04-23T01:56:35.754Z,20.10
2023-04-23T01:59:02.017Z,19.43
2023-04-23T02:01:41.898Z,19.87
2023-04-23T02:04:08.254Z,19.30
2023-04-23T02:06:34.608Z,20.77
2023-04-23T02:09:00.708Z,20.63
2023-04-23T02:11:26.810Z,21.50
2023-04-23T02:13:53.691Z,21.20
2023-04-23T02:16:19.956Z,20.57
2023-04-23T02:18:46.130Z,20.43
2023-04-23T02:21:12.400Z,21.37
2023-04-23T02:23:38.703Z,21.10
2023-04-23T02:26:05.075Z,21.87
2023-04-23T02:28:31.406Z,21.37
2023-04-23T02:30:58.451Z,21.07
2023-04-23T02:33:25.808Z,20.63
2023-04-23T02:35:51.945Z,22.37
2023-04-23T02:38:18.063Z,21.00
2023-04-23T02:40:44.164Z,20.53
2023-04-23T02:43:10.476Z,20.13
2023-04-23T02:45:36.592Z,20.30
2023-04-23T02:48:03.756Z,20.17
2023-04-23T02:50:29.935Z,21.17
2023-04-23T02:52:56.223Z,20.90
2023-04-23T02:55:24.468Z,21.63
2023-04-23T02:57:50.712Z,20.00
2023-04-23T03:00:17.359Z,19.97
2023-04-23T03:02:43.644Z,20.37
2023-04-23T03:05:10.724Z,20.20
2023-04-23T03:07:36.863Z,20.97
2023-04-23T03:10:03.333Z,21.53
2023-04-23T03:12:29.493Z,20.50
2023-04-23T03:14:55.624Z,20.10
2023-04-23T03:17:21.802Z,20.07
2023-04-23T03:19:48.140Z,20.47
2023-04-23T03:22:14.872Z,19.83
2023-04-23T03:24:41.218Z,19.90
2023-04-23T03:27:07.623Z,20.03
2023-04-23T03:29:33.728Z,20.47
2023-04-23T03:32:00.185Z,19.30
2023-04-23T03:34:26.354Z,19.67
2023-04-23T03:36:52.482Z,20.10
2023-04-23T03:39:19.266Z,20.63
2023-04-23T03:41:45.400Z,21.47
2023-04-23T03:44:11.718Z,20.03
2023-04-23T03:46:38.106Z,21.43
2023-04-23T03:49:04.307Z,21.20
2023-04-23T03:51:31.091Z,20.70
2023-04-23T03:53:57.302Z,20.47
2023-04-23T03:56:26.459Z,20.67
2023-04-23T03:58:53.221Z,20.97
2023-04-23T04:01:19.358Z,20.93
2023-04-23T04:03:45.617Z,21.23
2023-04-23T04:06:11.838Z,20.47
2023-04-23T04:08:37.983Z,21.57
2023-04-23T04:11:04.146Z,21.70
2023-04-23T04:13:31.082Z,22.60
2023-04-23T04:15:57.268Z,21.13
2023-04-23T04:18:23.832Z,20.83
2023-04-23T04:20:51.397Z,22.13
2023-04-23T04:23:17.590Z,23.07
2023-04-23T04:25:45.117Z,22.57
2023-04-23T04:28:11.353Z,21.57
2023-04-23T04:30:38.803Z,21.93
2023-04-23T04:33:04.962Z,22.47
2023-04-23T04:35:31.142Z,22.40
2023-04-23T04:37:58.058Z,22.53
2023-04-23T04:40:25.701Z,22.20
2023-04-23T04:42:52.142Z,22.87
2023-04-23T04:45:18.879Z,22.17
2023-04-23T04:47:45.676Z,22.83
2023-04-23T04:50:11.861Z,23.30
2023-04-23T04:52:38.026Z,22.13
2023-04-23T04:55:05.062Z,21.93
2023-04-23T04:57:31.233Z,21.73
2023-04-23T04:59:57.528Z,22.70
2023-04-23T05:02:23.784Z,23.37
2023-04-23T05:04:50.648Z,23.63
2023-04-23T05:07:16.768Z,22.13
2023-04-23T05:09:44.934Z,22.23
2023-04-23T05:12:11.466Z,22.13
2023-04-23T05:14:37.578Z,21.10
2023-04-23T05:17:04.015Z,20.63
2023-04-23T05:19:30.843Z,20.80
2023-04-23T05:21:57.597Z,20.73
2023-04-23T05:24:23.723Z,20.60
2023-04-23T05:26:50.059Z,20.13
2023-04-23T05:29:18.483Z,20.17
2023-04-23T05:31:45.612Z,18.43
2023-04-23T05:34:11.998Z,19.53
2023-04-23T05:36:39.198Z,19.67
2023-04-23T05:39:05.982Z,17.33
2023-04-23T05:41:32.409Z,16.77
2023-04-23T05:43:58.651Z,17.53
2023-04-23T05:46:24.795Z,17.30
2023-04-23T05:48:50.961Z,16.17
2023-04-23T05:51:17.599Z,16.50
2023-04-23T05:53:43.748Z,14.77
2023-04-23T05:56:10.507Z,15.80
2023-04-23T05:58:38.003Z,15.07
2023-04-23T06:01:04.218Z,16.57
2023-04-23T06:03:30.586Z,15.40
2023-04-23T06:05:56.943Z,16.13
2023-04-23T06:08:24.895Z,15.80
2023-04-23T06:10:51.318Z,15.67
2023-04-23T06:13:18.279Z,14.27
2023-04-23T06:15:44.498Z,14.70
2023-04-23T06:18:10.727Z,15.60
2023-04-23T06:20:37.121Z,15.77
2023-04-23T06:23:03.271Z,14.77
2023-04-23T06:25:29.429Z,13.63
2023-04-23T06:27:57.126Z,15.20
2023-04-23T06:30:24.144Z,14.47
2023-04-23T06:32:50.365Z,15.00
2023-04-23T06:35:16.538Z,15.20
2023-04-23T06:37:42.719Z,14.73
2023-04-23T06:40:09.681Z,14.93
2023-04-23T06:42:35.801Z,15.57
2023-04-23T06:45:05.918Z,13.63
2023-04-23T06:47:33.297Z,14.10
2023-04-23T06:49:59.781Z,14.57
2023-04-23T06:52:26.462Z,13.63
2023-04-23T06:54:52.672Z,13.63
2023-04-23T06:57:18.764Z,13.63
2023-04-23T06:59:44.892Z,13.97
2023-04-23T07:02:11.144Z,13.67
2023-04-23T07:04:38.085Z,12.60
2023-04-23T07:07:04.292Z,12.87
2023-04-23T07:09:30.889Z,12.77
2023-04-23T07:11:57.070Z,12.60
2023-04-23T07:14:23.517Z,12.80
2023-04-23T07:16:50.195Z,11.97
2023-04-23T07:19:16.437Z,12.50
2023-04-23T07:21:43.215Z,11.73
2023-04-23T07:24:09.303Z,11.30
2023-04-23T07:26:35.852Z,10.33
2023-04-23T07:29:02.414Z,11.37
2023-04-23T07:31:28.761Z,10.37
2023-04-23T07:33:55.032Z,10.33
2023-04-23T07:36:22.061Z,10.00
2023-04-23T07:38:48.917Z,9.73
2023-04-23T07:41:15.261Z,9.67
2023-04-23T07:43:42.290Z,10.27
2023-04-23T07:46:08.504Z,9.10
2023-04-23T07:48:35.150Z,9.43
2023-04-23T07:51:01.370Z,8.63
2023-04-23T07:53:27.802Z,8.80
2023-04-23T07:55:55.654Z,8.27
2023-04-23T07:58:22.126Z,8.33
2023-04-23T08:00:48.247Z,7.83
2023-04-23T08:03:14.645Z,7.10
2023-04-23T08:05:41.271Z,7.30
2023-04-23T08:08:07.662Z,7.50
2023-04-23T08:10:33.921Z,7.30
2023-04-23T08:13:00.765Z,7.83
2023-04-23T08:15:26.929Z,6.73
2023-04-23T08:17:53.238Z,6.10
2023-04-23T08:20:19.665Z,6.20
2023-04-23T08:22:45.915Z,5.90
2023-04-23T08:25:12.446Z,5.90
2023-04-23T08:27:38.661Z,5.47
2023-04-23T08:30:07.852Z,6.10
2023-04-23T08:32:34.005Z,5.40
2023-04-23T08:35:00.203Z,4.90
2023-04-23T08:37:30.721Z,5.10
2023-04-23T08:39:57.660Z,4.83
2023-04-23T08:42:29.817Z,3.80
2023-04-23T08:44:56.142Z,3.07
2023-04-23T08:47:24.704Z,3.33
2023-04-23T08:49:53.990Z,3.57
2023-04-23T08:52:23.382Z,3.43
2023-04-23T08:54:52.330Z,3.40
2023-04-23T08:57:18.821Z,3.07
2023-04-23T08:59:45.766Z,2.90
2023-04-23T09:02:12.085Z,3.30
2023-04-23T09:04:38.934Z,3.23
2023-04-23T09:07:07.433Z,3.40
2023-04-23T09:09:33.720Z,3.00
2023-04-23T09:12:00.460Z,2.70
2023-04-23T09:14:26.801Z,2.87
2023-04-23T09:16:53.665Z,2.70
2023-04-23T09:19:20.024Z,2.70
2023-04-23T09:21:46.892Z,2.17
2023-04-23T09:24:14.242Z,2.60
2023-04-23T09:26:45.188Z,2.30
2023-04-23T09:29:16.530Z,2.40
2023-04-23T09:31:43.403Z,2.60
2023-04-23T09:34:09.653Z,2.67
2023-04-23T09:36:37.161Z,2.57
2023-04-23T09:39:11.953Z,2.50
2023-04-23T09:41:40.366Z,2.50
2023-04-23T09:44:08.033Z,3.10
2023-04-23T09:46:35.684Z,2.90
2023-04-23T09:49:03.435Z,2.93
2023-04-23T09:51:29.852Z,2.50
2023-04-23T09:53:56.258Z,3.13
2023-04-23T09:56:24.145Z,2.77
2023-04-23T09:58:50.280Z,2.73
2023-04-23T10:01:17.737Z,2.63
2023-04-23T10:03:44.439Z,2.40
2023-04-23T10:06:25.487Z,2.80
2023-04-23T10:08:59.531Z,2.63
2023-04-23T10:11:26.537Z,2.77
2023-04-23T10:13:53.948Z,2.13
2023-04-23T10:16:25.241Z,2.17
2023-04-23T10:18:56.119Z,2.10
2023-04-23T10:21:28.301Z,1.67
2023-04-23T10:23:58.471Z,1.53
2023-04-23T10:26:26.206Z,1.50
2023-04-23T10:28:54.149Z,1.37
2023-04-23T10:31:21.847Z,1.83
2023-04-23T10:33:58.148Z,1.87
2023-04-23T10:36:26.754Z,1.50
2023-04-23T10:38:58.427Z,1.63
2023-04-23T10:41:31.440Z,1.67
2023-04-23T10:43:57.758Z,1.40
2023-04-23T10:46:30.560Z,1.50
2023-04-23T10:49:13.960Z,1.33
2023-04-23T10:54:14.009Z,1.93
2023-04-23T10:56:41.206Z,1.20
2023-04-23T10:59:07.907Z,1.30
2023-04-23T11:01:34.092Z,1.27
2023-04-23T11:04:19.381Z,1.20
2023-04-23T11:06:58.358Z,1.10
2023-04-23T11:09:31.854Z,1.17
2023-04-23T11:11:59.311Z,1.30
2023-04-23T11:14:42.905Z,1.30
2023-04-23T11:17:11.699Z,1.37
2023-04-23T11:19:38.190Z,1.10
2023-04-23T11:22:05.406Z,1.10
2023-04-23T11:24:33.109Z,1.20
2023-04-23T11:27:01.828Z,1.20
2023-04-23T11:29:28.295Z,1.60
2023-04-23T11:32:02.723Z,1.50
2023-04-23T11:34:30.150Z,1.70
2023-04-23T11:36:58.800Z,1.70
2023-04-23T11:39:25.038Z,1.97
2023-04-23T11:41:51.891Z,1.60
2023-04-23T11:44:19.609Z,1.40
2023-04-23T11:46:46.384Z,1.17
2023-04-23T11:49:13.047Z,1.30
2023-04-23T11:51:42.251Z,1.17
2023-04-23T11:54:08.406Z,1.30
2023-04-23T11:56:35.256Z,1.30
2023-04-23T11:59:02.924Z,1.30
2023-04-23T12:01:40.961Z,1.30
2023-04-23T12:04:14.693Z,1.50
2023-04-23T12:06:42.988Z,1.23
2023-04-23T12:09:10.183Z,1.00
2023-04-23T12:11:36.531Z,1.27
2023-04-23T12:14:02.888Z,1.80
2023-04-23T12:16:40.616Z,1.40
2023-04-23T12:19:12.333Z,1.30
2023-04-23T12:21:48.616Z,1.40
2023-04-23T12:24:15.103Z,1.13
2023-04-23T12:26:41.732Z,1.10
2023-04-23T12:29:07.938Z,1.30
2023-04-23T12:31:37.048Z,1.20
2023-04-23T12:34:05.140Z,1.30
2023-04-23T12:36:32.098Z,1.20
2023-04-23T12:39:21.152Z,1.20
2023-04-23T12:41:48.639Z,1.20
2023-04-23T12:44:14.930Z,1.00
2023-04-23T12:46:41.099Z,1.03
2023-04-23T12:49:07.881Z,1.40
2023-04-23T12:51:34.019Z,1.00
2023-04-23T12:54:00.341Z,1.17
2023-04-23T12:56:26.490Z,1.00
2023-04-23T12:58:52.648Z,1.10
2023-04-23T13:01:18.901Z,1.30
2023-04-23T13:03:45.112Z,1.20
2023-04-23T13:06:11.951Z,1.27
2023-04-23T13:08:38.552Z,1.27
2023-04-23T13:11:04.866Z,1.60
2023-04-23T15:17:36.751Z,1.50
2023-04-23T15:20:03.311Z,1.20
2023-04-23T15:22:29.476Z,1.43
2023-04-23T15:24:55.722Z,1.40
2023-04-23T15:27:21.950Z,1.57
2023-04-23T15:29:48.666Z,1.30
2023-04-23T15:32:15.755Z,1.40
2023-04-23T15:34:42.565Z,1.70
2023-04-23T15:37:08.716Z,1.93
2023-04-23T15:39:34.858Z,1.93
2023-04-23T15:42:02.583Z,1.47
2023-04-23T15:44:28.782Z,2.00
2023-04-23T15:46:54.939Z,2.33
2023-04-23T15:49:21.076Z,2.83
2023-04-23T15:51:47.869Z,2.50
2023-04-23T15:54:14.043Z,2.70
2023-04-23T15:56:40.213Z,2.30
2023-04-23T15:59:06.901Z,2.50
2023-04-23T16:01:33.111Z,2.77
2023-04-23T16:04:09.429Z,3.00
2023-04-23T16:06:36.773Z,3.37
2023-04-23T16:09:06.432Z,3.10
2023-04-23T16:11:32.587Z,3.47
2023-04-23T16:13:58.991Z,4.00
2023-04-23T16:16:25.277Z,3.90
2023-04-23T16:18:51.618Z,3.90
2023-04-23T16:21:17.971Z,4.20
2023-04-23T16:23:44.141Z,4.00
2023-04-23T16:26:10.891Z,4.13
2023-04-23T16:28:37.117Z,4.10
2023-04-23T16:31:03.350Z,4.00
2023-04-23T16:33:29.971Z,4.23
2023-04-23T16:35:56.454Z,4.20
2023-04-23T16:38:22.837Z,3.50
2023-04-23T16:40:49.435Z,4.27
2023-04-23T16:43:16.367Z,4.07
2023-04-23T16:45:42.492Z,3.77
2023-04-23T16:48:12.121Z,3.70
2023-04-23T16:50:38.418Z,5.20
2023-04-23T16:53:04.556Z,4.70
2023-04-23T16:55:30.657Z,3.30
2023-04-23T16:57:56.780Z,3.27
2023-04-23T17:00:23.668Z,3.83
2023-04-23T17:02:50.004Z,3.70
2023-04-23T17:05:16.332Z,3.83
2023-04-23T17:07:43.169Z,3.97
2023-04-23T17:10:10.280Z,3.83
2023-04-23T17:12:36.877Z,3.97
2023-04-23T17:15:03.700Z,3.67
2023-04-23T17:17:30.743Z,3.47
2023-04-23T17:19:56.949Z,3.40
2023-04-23T17:22:23.292Z,3.47
2023-04-23T17:24:50.029Z,3.50
2023-04-23T17:27:16.194Z,3.20
2023-04-23T17:29:42.340Z,3.07
2023-04-23T17:32:09.288Z,3.17
2023-04-23T17:34:36.192Z,3.67
2023-04-23T17:37:02.391Z,4.60
2023-04-23T17:39:28.521Z,3.80
2023-04-23T17:41:56.656Z,3.40
2023-04-23T17:44:22.758Z,2.87
2023-04-23T17:46:48.936Z,3.30
2023-04-23T17:49:15.090Z,3.20
2023-04-23T17:51:41.978Z,2.83
2023-04-23T17:54:08.192Z,3.10
2023-04-23T17:56:34.916Z,3.70
2023-04-23T17:59:01.052Z,3.10
2023-04-23T18:01:27.275Z,2.93
2023-04-23T18:03:54.135Z,2.60
2023-04-23T18:06:21.840Z,3.00
2023-04-23T18:08:48.873Z,2.77
2023-04-23T18:11:14.985Z,2.90
2023-04-23T18:13:42.248Z,2.63
2023-04-23T18:16:08.396Z,2.93
2023-04-23T18:18:34.586Z,2.33
2023-04-23T18:21:02.115Z,2.60
2023-04-23T18:23:28.516Z,2.43
2023-04-23T18:25:55.812Z,2.47
2023-04-23T18:28:22.121Z,2.57
2023-04-23T18:30:48.348Z,2.47
2023-04-23T18:33:25.594Z,2.20
2023-04-23T18:35:54.741Z,2.30
2023-04-23T18:38:24.084Z,2.20
2023-04-23T18:40:50.699Z,2.33
2023-04-23T18:43:17.924Z,2.53
2023-04-23T18:45:46.179Z,3.10
2023-04-23T18:48:40.875Z,2.60
2023-04-23T18:51:13.778Z,2.20
2023-04-23T18:53:40.107Z,2.73
2023-04-23T18:56:06.263Z,2.40
2023-04-23T18:58:33.262Z,2.03
2023-04-23T19:00:59.486Z,1.87
2023-04-23T19:03:27.175Z,2.00
2023-04-23T19:05:53.827Z,1.90
2023-04-23T19:08:21.852Z,1.90
2023-04-23T19:10:48.200Z,2.00
2023-04-23T19:13:14.591Z,1.50
2023-04-23T19:15:41.431Z,1.90
2023-04-23T19:18:07.649Z,1.60
2023-04-23T19:20:33.776Z,1.57
2023-04-23T19:22:59.889Z,1.93
2023-04-23T19:25:26.316Z,1.50
2023-04-23T19:27:52.542Z,1.70
2023-04-23T19:30:18.738Z,1.67
2023-04-23T19:32:45.552Z,1.80
2023-04-23T19:35:11.823Z,1.80
2023-04-23T19:37:38.087Z,1.57
2023-04-23T19:40:06.237Z,1.67
2023-04-23T19:42:32.408Z,1.53
2023-04-23T19:44:58.520Z,1.50
2023-04-23T19:47:24.855Z,1.40
2023-04-23T19:49:51.813Z,1.37
2023-04-23T19:52:20.047Z,1.20
2023-04-23T19:54:48.341Z,1.20
2023-04-23T19:57:14.551Z,1.00
2023-04-23T19:59:40.891Z,0.93
2023-04-23T20:02:07.671Z,0.73
2023-04-23T20:04:33.922Z,1.00
2023-04-23T20:07:00.893Z,0.90
2023-04-23T20:09:27.420Z,0.70
2023-04-23T20:11:53.663Z,0.70
2023-04-23T20:14:20.138Z,0.73
2023-04-23T20:16:46.839Z,0.77
2023-04-23T20:19:13.449Z,0.83
2023-04-23T20:21:40.411Z,1.00
2023-04-23T20:24:07.881Z,1.00
2023-04-23T20:26:34.514Z,1.00
2023-04-23T20:29:00.806Z,0.60
2023-04-23T20:31:26.979Z,0.70
2023-04-23T20:33:53.411Z,0.80
2023-04-23T20:36:19.638Z,0.50
2023-04-23T20:38:46.451Z,0.70
2023-04-23T20:41:13.452Z,1.30
2023-04-23T20:43:42.833Z,0.67
2023-04-23T20:46:09.376Z,0.80
2023-04-23T20:48:36.283Z,0.80
2023-04-23T20:51:02.729Z,0.50
2023-04-23T20:53:28.932Z,0.80
2023-04-23T20:55:55.724Z,0.70
2023-04-23T20:58:23.000Z,0.70
2023-04-23T21:00:50.493Z,0.60
2023-04-23T21:03:16.868Z,0.63
2023-04-23T21:05:43.875Z,0.70
2023-04-23T21:08:10.645Z,0.57
2023-04-23T21:10:37.646Z,0.53
2023-04-23T21:13:04.808Z,0.60
2023-04-23T21:15:33.284Z,0.70
2023-04-23T21:18:00.168Z,0.93
2023-04-23T21:20:26.357Z,0.60
2023-04-23T21:22:52.743Z,0.80
2023-04-23T21:25:19.001Z,0.60
2023-04-23T21:27:48.448Z,0.70
2023-04-23T21:30:22.473Z,0.50
2023-04-23T21:32:51.234Z,0.80
2023-04-23T21:35:17.579Z,0.90
2023-04-23T21:37:43.695Z,0.70
2023-04-23T21:40:10.042Z,0.60
2023-04-23T21:42:36.213Z,0.57
2023-04-23T21:45:02.457Z,1.57
2023-04-23T21:47:28.638Z,0.60
2023-04-23T21:49:55.998Z,0.60
2023-04-23T21:52:22.318Z,0.50
2023-04-23T21:54:48.579Z,0.70
2023-04-23T21:57:14.719Z,0.70
2023-04-23T21:59:41.407Z,0.70
2023-04-23T22:02:07.887Z,1.00
2023-04-23T22:04:34.291Z,0.67
2023-04-23T22:07:04.700Z,0.57
2023-04-23T22:09:31.133Z,0.50
2023-04-23T22:14:27.054Z,0.87
2023-04-23T22:16:54.342Z,0.80
2023-04-23T22:19:20.602Z,0.80
2023-04-23T22:21:46.734Z,0.33
2023-04-23T22:24:13.458Z,0.80
2023-04-23T22:26:39.715Z,0.90
2023-04-23T22:29:05.898Z,0.70
2023-04-23T22:31:32.052Z,0.60
2023-04-23T22:33:58.196Z,0.60
2023-04-23T22:36:24.826Z,0.73
2023-04-23T22:38:51.080Z,1.10
2023-04-23T22:41:17.952Z,0.80
2023-04-23T22:43:44.216Z,0.87
2023-04-23T22:46:10.478Z,0.80
2023-04-23T22:48:43.136Z,0.60
2023-04-23T22:51:10.139Z,0.90
2023-04-23T22:53:36.390Z,0.97
2023-04-23T22:56:02.601Z,0.77
2023-04-23T22:58:29.850Z,1.00
2023-04-23T23:00:55.972Z,1.03
2023-04-23T23:03:22.310Z,0.83
2023-04-23T23:05:48.472Z,0.80
2023-04-23T23:08:14.590Z,0.83
2023-04-23T23:10:40.751Z,0.60
2023-04-23T23:13:06.940Z,0.60
2023-04-23T23:15:34.371Z,0.60
2023-04-23T23:18:00.970Z,0.77
2023-04-23T23:20:27.189Z,0.80
2023-04-23T23:22:53.700Z,0.63
2023-04-23T23:25:19.871Z,0.57
2023-04-23T23:27:46.000Z,0.87
2023-04-23T23:30:12.113Z,0.70
2023-04-23T23:32:38.954Z,0.80
2023-04-23T23:35:05.918Z,0.70
2023-04-23T23:37:32.269Z,1.30
2023-04-23T23:39:58.593Z,1.20
2023-04-23T23:42:24.781Z,0.80
2023-04-23T23:44:50.905Z,1.10
2023-04-23T23:47:17.004Z,1.00
2023-04-23T23:49:43.958Z,1.03
2023-04-23T23:52:10.343Z,1.10
2023-04-23T23:54:36.456Z,1.40
2023-04-23T23:57:02.851Z,1.50
2023-04-23T23:59:29.015Z,1.40
